sensor_id;sensor_type;location;lat;lon;timestamp;temperature;humidity
3876;DHT22;1953;51.222;6.624;2023-03-19T00:04:08;13.10;1.00
3876;DHT22;1953;51.222;6.624;2023-03-19T00:10:16;13.10;1.00
3876;DHT22;1953;51.222;6.624;2023-03-19T00:14:59;13.00;1.00
3876;DHT22;1953;51.222;6.624;2023-03-19T00:19:41;13.10;1.00
3876;DHT22;1953;51.222;6.624;2023-03-19T00:24:24;13.10;1.00
3876;DHT22;1953;51.222;6.624;2023-03-19T00:29:09;13.00;1.00
3876;DHT22;1953;51.222;6.624;2023-03-19T00:33:53;12.90;1.00
3876;DHT22;1953;51.222;6.624;2023-03-19T00:38:36;12.80;1.00
3876;DHT22;1953;51.222;6.624;2023-03-19T00:43:18;12.80;1.00
3876;DHT22;1953;51.222;6.624;2023-03-19T00:48:03;12.90;1.00
3876;DHT22;1953;51.222;6.624;2023-03-19T00:52:45;12.90;1.00
3876;DHT22;1953;51.222;6.624;2023-03-19T00:57:28;12.90;1.00
3876;DHT22;1953;51.222;6.624;2023-03-19T01:02:10;12.90;1.00
3876;DHT22;1953;51.222;6.624;2023-03-19T01:06:54;12.60;1.00
3876;DHT22;1953;51.222;6.624;2023-03-19T01:11:38;12.50;1.00
3876;DHT22;1953;51.222;6.624;2023-03-19T01:16:20;12.40;1.00
3876;DHT22;1953;51.222;6.624;2023-03-19T01:21:03;12.50;1.00
3876;DHT22;1953;51.222;6.624;2023-03-19T01:25:47;12.50;1.00
3876;DHT22;1953;51.222;6.624;2023-03-19T01:30:30;12.50;1.00
3876;DHT22;1953;51.222;6.624;2023-03-19T01:35:12;12.60;1.00
3876;DHT22;1953;51.222;6.624;2023-03-19T01:39:55;12.60;1.00
3876;DHT22;1953;51.222;6.624;2023-03-19T01:44:39;12.60;1.00
3876;DHT22;1953;51.222;6.624;2023-03-19T01:49:23;12.60;1.00
3876;DHT22;1953;51.222;6.624;2023-03-19T01:54:09;12.50;1.00
3876;DHT22;1953;51.222;6.624;2023-03-19T01:58:56;12.40;1.00
3876;DHT22;1953;51.222;6.624;2023-03-19T02:03:41;12.40;1.00
3876;DHT22;1953;51.222;6.624;2023-03-19T02:08:24;12.40;1.00
3876;DHT22;1953;51.222;6.624;2023-03-19T02:13:07;12.30;1.00
3876;DHT22;1953;51.222;6.624;2023-03-19T02:17:50;12.40;1.00
3876;DHT22;1953;51.222;6.624;2023-03-19T02:22:35;12.40;1.00
3876;DHT22;1953;51.222;6.624;2023-03-19T02:27:22;12.30;1.00
3876;DHT22;1953;51.222;6.624;2023-03-19T02:32:05;12.30;1.00
3876;DHT22;1953;51.222;6.624;2023-03-19T02:36:51;12.40;1.00
3876;DHT22;1953;51.222;6.624;2023-03-19T02:41:36;12.30;1.00
3876;DHT22;1953;51.222;6.624;2023-03-19T02:46:22;12.30;1.00
3876;DHT22;1953;51.222;6.624;2023-03-19T02:51:05;12.30;1.00
3876;DHT22;1953;51.222;6.624;2023-03-19T02:55:47;12.30;1.00
3876;DHT22;1953;51.222;6.624;2023-03-19T03:00:30;12.20;1.00
3876;DHT22;1953;51.222;6.624;2023-03-19T03:05:14;12.20;1.00
3876;DHT22;1953;51.222;6.624;2023-03-19T03:09:56;12.10;1.00
3876;DHT22;1953;51.222;6.624;2023-03-19T03:14:38;12.10;1.00
3876;DHT22;1953;51.222;6.624;2023-03-19T03:19:21;12.10;1.00
3876;DHT22;1953;51.222;6.624;2023-03-19T03:24:06;12.10;1.00
3876;DHT22;1953;51.222;6.624;2023-03-19T03:28:49;12.00;1.00
3876;DHT22;1953;51.222;6.624;2023-03-19T03:33:32;11.80;1.00
3876;DHT22;1953;51.222;6.624;2023-03-19T03:38:14;11.80;1.00
3876;DHT22;1953;51.222;6.624;2023-03-19T03:42:59;11.70;1.00
3876;DHT22;1953;51.222;6.624;2023-03-19T03:47:42;11.70;1.00
3876;DHT22;1953;51.222;6.624;2023-03-19T03:52:24;11.60;1.00
3876;DHT22;1953;51.222;6.624;2023-03-19T03:57:11;11.70;1.00
3876;DHT22;1953;51.222;6.624;2023-03-19T04:01:55;11.70;1.00
3876;DHT22;1953;51.222;6.624;2023-03-19T04:06:37;11.80;1.00
3876;DHT22;1953;51.222;6.624;2023-03-19T04:11:20;11.80;1.00
3876;DHT22;1953;51.222;6.624;2023-03-19T04:16:03;11.80;1.00
3876;DHT22;1953;51.222;6.624;2023-03-19T04:20:47;11.90;1.00
3876;DHT22;1953;51.222;6.624;2023-03-19T04:25:30;11.90;1.00
3876;DHT22;1953;51.222;6.624;2023-03-19T04:30:13;12.00;1.00
3876;DHT22;1953;51.222;6.624;2023-03-19T04:34:55;12.00;1.00
3876;DHT22;1953;51.222;6.624;2023-03-19T04:39:39;12.10;1.00
3876;DHT22;1953;51.222;6.624;2023-03-19T04:44:22;12.20;1.00
3876;DHT22;1953;51.222;6.624;2023-03-19T04:49:04;12.30;1.00
3876;DHT22;1953;51.222;6.624;2023-03-19T04:53:47;12.30;1.00
3876;DHT22;1953;51.222;6.624;2023-03-19T04:58:31;12.40;1.00
3876;DHT22;1953;51.222;6.624;2023-03-19T05:03:13;12.40;1.00
3876;DHT22;1953;51.222;6.624;2023-03-19T05:07:56;12.50;1.00
3876;DHT22;1953;51.222;6.624;2023-03-19T05:12:39;12.50;1.00
3876;DHT22;1953;51.222;6.624;2023-03-19T05:17:23;12.50;1.00
3876;DHT22;1953;51.222;6.624;2023-03-19T05:22:05;12.60;1.00
3876;DHT22;1953;51.222;6.624;2023-03-19T05:26:48;12.60;1.00
3876;DHT22;1953;51.222;6.624;2023-03-19T05:31:30;12.50;1.00
3876;DHT22;1953;51.222;6.624;2023-03-19T05:36:14;12.50;1.00
3876;DHT22;1953;51.222;6.624;2023-03-19T05:41:02;12.40;1.00
3876;DHT22;1953;51.222;6.624;2023-03-19T05:45:49;12.40;1.00
3876;DHT22;1953;51.222;6.624;2023-03-19T05:50:32;12.30;1.00
3876;DHT22;1953;51.222;6.624;2023-03-19T05:55:16;12.30;1.00
3876;DHT22;1953;51.222;6.624;2023-03-19T05:59:58;12.40;1.00
3876;DHT22;1953;51.222;6.624;2023-03-19T06:04:41;12.40;1.00
3876;DHT22;1953;51.222;6.624;2023-03-19T06:09:23;12.40;1.00
3876;DHT22;1953;51.222;6.624;2023-03-19T06:14:07;12.30;1.00
3876;DHT22;1953;51.222;6.624;2023-03-19T06:18:50;12.30;1.00
3876;DHT22;1953;51.222;6.624;2023-03-19T06:23:32;12.30;1.00
3876;DHT22;1953;51.222;6.624;2023-03-19T06:28:15;12.40;1.00
3876;DHT22;1953;51.222;6.624;2023-03-19T06:32:59;12.50;1.00
3876;DHT22;1953;51.222;6.624;2023-03-19T06:37:41;12.50;1.00
3876;DHT22;1953;51.222;6.624;2023-03-19T06:42:24;12.50;1.00
3876;DHT22;1953;51.222;6.624;2023-03-19T06:47:07;12.40;1.00
3876;DHT22;1953;51.222;6.624;2023-03-19T06:51:51;12.40;1.00
3876;DHT22;1953;51.222;6.624;2023-03-19T06:56:33;12.50;1.00
3876;DHT22;1953;51.222;6.624;2023-03-19T07:01:16;12.50;1.00
3876;DHT22;1953;51.222;6.624;2023-03-19T07:05:59;12.60;1.00
3876;DHT22;1953;51.222;6.624;2023-03-19T07:10:42;12.70;1.00
3876;DHT22;1953;51.222;6.624;2023-03-19T07:15:25;12.90;1.00
3876;DHT22;1953;51.222;6.624;2023-03-19T07:20:09;12.90;1.00
3876;DHT22;1953;51.222;6.624;2023-03-19T07:24:51;13.00;1.00
3876;DHT22;1953;51.222;6.624;2023-03-19T07:29:35;12.90;1.00
3876;DHT22;1953;51.222;6.624;2023-03-19T07:34:18;13.00;1.00
3876;DHT22;1953;51.222;6.624;2023-03-19T07:39:00;13.00;1.00
3876;DHT22;1953;51.222;6.624;2023-03-19T07:43:43;13.10;1.00
3876;DHT22;1953;51.222;6.624;2023-03-19T07:48:27;13.10;1.00
3876;DHT22;1953;51.222;6.624;2023-03-19T07:53:10;13.20;1.00
3876;DHT22;1953;51.222;6.624;2023-03-19T07:57:53;13.10;1.00
3876;DHT22;1953;51.222;6.624;2023-03-19T08:02:35;13.30;1.00
3876;DHT22;1953;51.222;6.624;2023-03-19T08:07:19;13.40;1.00
3876;DHT22;1953;51.222;6.624;2023-03-19T08:12:01;13.40;1.00
3876;DHT22;1953;51.222;6.624;2023-03-19T08:16:44;13.60;1.00
3876;DHT22;1953;51.222;6.624;2023-03-19T08:21:26;13.70;1.00
3876;DHT22;1953;51.222;6.624;2023-03-19T08:26:11;13.70;1.00
3876;DHT22;1953;51.222;6.624;2023-03-19T08:30:53;13.90;1.00
3876;DHT22;1953;51.222;6.624;2023-03-19T08:35:36;14.20;1.00
3876;DHT22;1953;51.222;6.624;2023-03-19T08:40:19;14.30;1.00
3876;DHT22;1953;51.222;6.624;2023-03-19T08:45:03;14.30;1.00
3876;DHT22;1953;51.222;6.624;2023-03-19T08:49:46;14.30;1.00
3876;DHT22;1953;51.222;6.624;2023-03-19T08:54:28;14.40;1.00
3876;DHT22;1953;51.222;6.624;2023-03-19T08:59:11;14.50;1.00
3876;DHT22;1953;51.222;6.624;2023-03-19T09:03:54;14.30;1.00
3876;DHT22;1953;51.222;6.624;2023-03-19T09:08:37;14.40;1.00
3876;DHT22;1953;51.222;6.624;2023-03-19T09:13:20;14.50;1.00
3876;DHT22;1953;51.222;6.624;2023-03-19T09:18:02;14.60;1.00
3876;DHT22;1953;51.222;6.624;2023-03-19T09:22:46;14.70;1.00
3876;DHT22;1953;51.222;6.624;2023-03-19T09:27:28;14.80;1.00
3876;DHT22;1953;51.222;6.624;2023-03-19T09:32:11;14.90;1.00
3876;DHT22;1953;51.222;6.624;2023-03-19T09:36:53;14.90;1.00
3876;DHT22;1953;51.222;6.624;2023-03-19T09:41:47;15.10;1.00
3876;DHT22;1953;51.222;6.624;2023-03-19T09:46:36;15.00;1.00
3876;DHT22;1953;51.222;6.624;2023-03-19T09:51:26;14.80;1.00
3876;DHT22;1953;51.222;6.624;2023-03-19T09:56:13;14.80;1.00
3876;DHT22;1953;51.222;6.624;2023-03-19T10:00:58;14.70;1.00
3876;DHT22;1953;51.222;6.624;2023-03-19T10:05:47;14.50;1.00
3876;DHT22;1953;51.222;6.624;2023-03-19T10:10:50;14.50;1.00
3876;DHT22;1953;51.222;6.624;2023-03-19T10:15:36;14.50;1.00
3876;DHT22;1953;51.222;6.624;2023-03-19T10:20:33;14.40;1.00
3876;DHT22;1953;51.222;6.624;2023-03-19T10:25:19;14.60;1.00
3876;DHT22;1953;51.222;6.624;2023-03-19T10:30:11;14.80;1.00
3876;DHT22;1953;51.222;6.624;2023-03-19T10:34:57;15.00;1.00
3876;DHT22;1953;51.222;6.624;2023-03-19T10:39:45;15.30;1.00
3876;DHT22;1953;51.222;6.624;2023-03-19T10:44:29;15.50;1.00
3876;DHT22;1953;51.222;6.624;2023-03-19T10:49:14;15.50;1.00
3876;DHT22;1953;51.222;6.624;2023-03-19T10:53:59;15.40;1.00
3876;DHT22;1953;51.222;6.624;2023-03-19T10:58:56;15.40;1.00
3876;DHT22;1953;51.222;6.624;2023-03-19T11:03:48;15.60;1.00
3876;DHT22;1953;51.222;6.624;2023-03-19T11:08:34;15.80;1.00
3876;DHT22;1953;51.222;6.624;2023-03-19T11:13:22;15.80;1.00
3876;DHT22;1953;51.222;6.624;2023-03-19T11:18:13;15.80;1.00
3876;DHT22;1953;51.222;6.624;2023-03-19T11:22:57;15.50;1.00
3876;DHT22;1953;51.222;6.624;2023-03-19T11:27:42;15.40;1.00
3876;DHT22;1953;51.222;6.624;2023-03-19T11:32:37;15.40;1.00
3876;DHT22;1953;51.222;6.624;2023-03-19T11:37:30;15.30;1.00
3876;DHT22;1953;51.222;6.624;2023-03-19T11:42:43;15.40;1.00
3876;DHT22;1953;51.222;6.624;2023-03-19T11:47:35;15.40;1.00
3876;DHT22;1953;51.222;6.624;2023-03-19T11:52:25;15.50;1.00
3876;DHT22;1953;51.222;6.624;2023-03-19T11:57:19;15.60;1.00
3876;DHT22;1953;51.222;6.624;2023-03-19T12:11:22;18.00;1.00
3876;DHT22;1953;51.222;6.624;2023-03-19T12:16:14;15.50;1.00
3876;DHT22;1953;51.222;6.624;2023-03-19T12:21:03;15.30;1.00
3876;DHT22;1953;51.222;6.624;2023-03-19T12:25:58;15.30;1.00
3876;DHT22;1953;51.222;6.624;2023-03-19T12:30:52;15.60;1.00
3876;DHT22;1953;51.222;6.624;2023-03-19T12:35:39;15.80;1.00
3876;DHT22;1953;51.222;6.624;2023-03-19T12:40:26;16.00;1.00
3876;DHT22;1953;51.222;6.624;2023-03-19T12:45:22;16.30;1.00
3876;DHT22;1953;51.222;6.624;2023-03-19T12:50:10;16.80;1.00
3876;DHT22;1953;51.222;6.624;2023-03-19T12:54:58;17.10;1.00
3876;DHT22;1953;51.222;6.624;2023-03-19T12:59:49;17.20;1.00
3876;DHT22;1953;51.222;6.624;2023-03-19T13:04:37;17.70;1.00
3876;DHT22;1953;51.222;6.624;2023-03-19T13:09:27;17.40;1.00
3876;DHT22;1953;51.222;6.624;2023-03-19T13:14:18;17.20;1.00
3876;DHT22;1953;51.222;6.624;2023-03-19T13:19:12;17.10;1.00
3876;DHT22;1953;51.222;6.624;2023-03-19T13:24:03;17.10;1.00
3876;DHT22;1953;51.222;6.624;2023-03-19T13:29:08;17.10;1.00
3876;DHT22;1953;51.222;6.624;2023-03-19T13:33:54;17.00;1.00
3876;DHT22;1953;51.222;6.624;2023-03-19T13:38:44;16.90;1.00
3876;DHT22;1953;51.222;6.624;2023-03-19T13:43:52;16.90;1.00
3876;DHT22;1953;51.222;6.624;2023-03-19T13:48:37;16.60;1.00
3876;DHT22;1953;51.222;6.624;2023-03-19T13:53:38;16.60;1.00
3876;DHT22;1953;51.222;6.624;2023-03-19T13:58:23;16.40;1.00
3876;DHT22;1953;51.222;6.624;2023-03-19T14:03:24;16.60;1.00
3876;DHT22;1953;51.222;6.624;2023-03-19T14:08:18;16.00;1.00
3876;DHT22;1953;51.222;6.624;2023-03-19T14:13:05;16.90;1.00
3876;DHT22;1953;51.222;6.624;2023-03-19T14:17:54;16.80;1.00
3876;DHT22;1953;51.222;6.624;2023-03-19T14:22:40;16.70;1.00
3876;DHT22;1953;51.222;6.624;2023-03-19T14:27:43;16.80;1.00
3876;DHT22;1953;51.222;6.624;2023-03-19T14:32:32;17.00;1.00
3876;DHT22;1953;51.222;6.624;2023-03-19T14:37:20;17.70;1.00
3876;DHT22;1953;51.222;6.624;2023-03-19T14:42:06;18.50;1.00
3876;DHT22;1953;51.222;6.624;2023-03-19T14:47:09;18.50;1.00
3876;DHT22;1953;51.222;6.624;2023-03-19T14:52:05;18.50;1.00
3876;DHT22;1953;51.222;6.624;2023-03-19T14:56:48;18.20;1.00
3876;DHT22;1953;51.222;6.624;2023-03-19T15:01:33;18.20;1.00
3876;DHT22;1953;51.222;6.624;2023-03-19T15:06:24;18.20;1.00
3876;DHT22;1953;51.222;6.624;2023-03-19T15:11:22;18.00;1.00
3876;DHT22;1953;51.222;6.624;2023-03-19T15:16:23;17.90;1.00
3876;DHT22;1953;51.222;6.624;2023-03-19T15:21:09;17.70;1.00
3876;DHT22;1953;51.222;6.624;2023-03-19T15:25:55;17.70;1.00
3876;DHT22;1953;51.222;6.624;2023-03-19T15:30:38;17.70;1.00
3876;DHT22;1953;51.222;6.624;2023-03-19T15:35:23;17.50;1.00
3876;DHT22;1953;51.222;6.624;2023-03-19T15:40:09;17.50;1.00
3876;DHT22;1953;51.222;6.624;2023-03-19T15:44:55;17.40;1.00
3876;DHT22;1953;51.222;6.624;2023-03-19T15:49:42;17.30;1.00
3876;DHT22;1953;51.222;6.624;2023-03-19T15:54:25;17.30;1.00
3876;DHT22;1953;51.222;6.624;2023-03-19T15:59:09;17.40;1.00
3876;DHT22;1953;51.222;6.624;2023-03-19T16:03:58;17.30;1.00
3876;DHT22;1953;51.222;6.624;2023-03-19T16:08:46;17.30;1.00
3876;DHT22;1953;51.222;6.624;2023-03-19T16:13:30;17.20;1.00
3876;DHT22;1953;51.222;6.624;2023-03-19T16:18:39;17.10;1.00
3876;DHT22;1953;51.222;6.624;2023-03-19T16:23:29;17.00;1.00
3876;DHT22;1953;51.222;6.624;2023-03-19T16:28:15;17.00;1.00
3876;DHT22;1953;51.222;6.624;2023-03-19T16:33:00;16.90;1.00
3876;DHT22;1953;51.222;6.624;2023-03-19T16:37:44;16.90;1.00
3876;DHT22;1953;51.222;6.624;2023-03-19T16:42:36;16.80;1.00
3876;DHT22;1953;51.222;6.624;2023-03-19T16:47:20;16.80;1.00
3876;DHT22;1953;51.222;6.624;2023-03-19T16:52:03;16.70;1.00
3876;DHT22;1953;51.222;6.624;2023-03-19T16:56:46;16.60;1.00
3876;DHT22;1953;51.222;6.624;2023-03-19T17:01:30;16.60;1.00
3876;DHT22;1953;51.222;6.624;2023-03-19T17:06:13;16.60;1.00
3876;DHT22;1953;51.222;6.624;2023-03-19T17:10:57;16.40;1.00
3876;DHT22;1953;51.222;6.624;2023-03-19T17:15:40;16.30;1.00
3876;DHT22;1953;51.222;6.624;2023-03-19T17:20:28;16.20;1.00
3876;DHT22;1953;51.222;6.624;2023-03-19T17:25:12;16.10;1.00
3876;DHT22;1953;51.222;6.624;2023-03-19T17:29:55;15.40;1.00
3876;DHT22;1953;51.222;6.624;2023-03-19T17:34:38;15.70;1.00
3876;DHT22;1953;51.222;6.624;2023-03-19T17:39:26;15.60;1.00
3876;DHT22;1953;51.222;6.624;2023-03-19T17:44:10;16.70;1.00
3876;DHT22;1953;51.222;6.624;2023-03-19T17:48:53;15.60;1.00
3876;DHT22;1953;51.222;6.624;2023-03-19T17:53:36;15.60;1.00
3876;DHT22;1953;51.222;6.624;2023-03-19T17:58:21;15.60;1.00
3876;DHT22;1953;51.222;6.624;2023-03-19T18:03:05;15.50;1.00
3876;DHT22;1953;51.222;6.624;2023-03-19T18:07:48;15.50;1.00
3876;DHT22;1953;51.222;6.624;2023-03-19T18:12:31;15.50;1.00
3876;DHT22;1953;51.222;6.624;2023-03-19T18:17:17;15.50;1.00
3876;DHT22;1953;51.222;6.624;2023-03-19T18:22:00;15.50;1.00
3876;DHT22;1953;51.222;6.624;2023-03-19T18:26:43;15.30;1.00
3876;DHT22;1953;51.222;6.624;2023-03-19T18:31:26;15.00;1.00
3876;DHT22;1953;51.222;6.624;2023-03-19T18:36:12;14.90;1.00
3876;DHT22;1953;51.222;6.624;2023-03-19T18:40:56;14.80;1.00
3876;DHT22;1953;51.222;6.624;2023-03-19T18:45:39;14.80;1.00
3876;DHT22;1953;51.222;6.624;2023-03-19T18:50:24;15.90;1.00
3876;DHT22;1953;51.222;6.624;2023-03-19T18:55:09;14.80;1.00
3876;DHT22;1953;51.222;6.624;2023-03-19T18:59:52;14.80;1.00
3876;DHT22;1953;51.222;6.624;2023-03-19T19:04:35;14.80;1.00
3876;DHT22;1953;51.222;6.624;2023-03-19T19:09:18;14.70;1.00
3876;DHT22;1953;51.222;6.624;2023-03-19T19:14:02;14.50;1.00
3876;DHT22;1953;51.222;6.624;2023-03-19T19:18:44;14.40;1.00
3876;DHT22;1953;51.222;6.624;2023-03-19T19:23:27;14.20;1.00
3876;DHT22;1953;51.222;6.624;2023-03-19T19:28:17;14.10;1.00
3876;DHT22;1953;51.222;6.624;2023-03-19T19:33:02;14.00;1.00
3876;DHT22;1953;51.222;6.624;2023-03-19T19:37:44;13.80;1.00
3876;DHT22;1953;51.222;6.624;2023-03-19T19:42:27;13.80;1.00
3876;DHT22;1953;51.222;6.624;2023-03-19T19:47:14;13.70;1.00
3876;DHT22;1953;51.222;6.624;2023-03-19T19:51:58;13.50;1.00
3876;DHT22;1953;51.222;6.624;2023-03-19T19:56:40;13.40;1.00
3876;DHT22;1953;51.222;6.624;2023-03-19T20:01:24;13.40;1.00
3876;DHT22;1953;51.222;6.624;2023-03-19T20:06:07;13.30;1.00
3876;DHT22;1953;51.222;6.624;2023-03-19T20:10:52;13.30;1.00
3876;DHT22;1953;51.222;6.624;2023-03-19T20:15:35;13.10;1.00
3876;DHT22;1953;51.222;6.624;2023-03-19T20:20:19;13.10;1.00
3876;DHT22;1953;51.222;6.624;2023-03-19T20:25:02;13.00;1.00
3876;DHT22;1953;51.222;6.624;2023-03-19T20:29:47;12.90;1.00
3876;DHT22;1953;51.222;6.624;2023-03-19T20:34:31;12.80;1.00
3876;DHT22;1953;51.222;6.624;2023-03-19T20:39:13;12.60;1.00
3876;DHT22;1953;51.222;6.624;2023-03-19T20:43:56;12.60;1.00
3876;DHT22;1953;51.222;6.624;2023-03-19T20:48:42;12.50;1.00
3876;DHT22;1953;51.222;6.624;2023-03-19T20:53:25;12.30;1.00
3876;DHT22;1953;51.222;6.624;2023-03-19T20:58:14;12.30;1.00
3876;DHT22;1953;51.222;6.624;2023-03-19T21:02:58;12.30;1.00
3876;DHT22;1953;51.222;6.624;2023-03-19T21:07:44;12.30;1.00
3876;DHT22;1953;51.222;6.624;2023-03-19T21:12:29;12.30;1.00
3876;DHT22;1953;51.222;6.624;2023-03-19T21:17:12;12.30;1.00
3876;DHT22;1953;51.222;6.624;2023-03-19T21:21:54;12.20;1.00
3876;DHT22;1953;51.222;6.624;2023-03-19T21:26:38;12.20;1.00
3876;DHT22;1953;51.222;6.624;2023-03-19T21:31:22;12.10;1.00
3876;DHT22;1953;51.222;6.624;2023-03-19T21:36:19;12.10;1.00
3876;DHT22;1953;51.222;6.624;2023-03-19T21:41:03;11.90;1.00
3876;DHT22;1953;51.222;6.624;2023-03-19T21:45:48;11.70;1.00
3876;DHT22;1953;51.222;6.624;2023-03-19T21:50:31;11.60;1.00
3876;DHT22;1953;51.222;6.624;2023-03-19T21:55:17;11.50;1.00
3876;DHT22;1953;51.222;6.624;2023-03-19T21:59:59;11.50;1.00
3876;DHT22;1953;51.222;6.624;2023-03-19T22:04:43;11.30;1.00
3876;DHT22;1953;51.222;6.624;2023-03-19T22:09:26;11.30;1.00
3876;DHT22;1953;51.222;6.624;2023-03-19T22:14:14;11.20;1.00
3876;DHT22;1953;51.222;6.624;2023-03-19T22:18:57;11.20;1.00
3876;DHT22;1953;51.222;6.624;2023-03-19T22:23:41;11.20;1.00
3876;DHT22;1953;51.222;6.624;2023-03-19T22:28:28;11.20;1.00
3876;DHT22;1953;51.222;6.624;2023-03-19T22:33:13;11.20;1.00
3876;DHT22;1953;51.222;6.624;2023-03-19T22:37:56;11.20;1.00
3876;DHT22;1953;51.222;6.624;2023-03-19T22:42:40;11.20;1.00
3876;DHT22;1953;51.222;6.624;2023-03-19T22:47:24;11.20;1.00
3876;DHT22;1953;51.222;6.624;2023-03-19T22:52:08;11.10;1.00
3876;DHT22;1953;51.222;6.624;2023-03-19T22:56:51;11.10;1.00
3876;DHT22;1953;51.222;6.624;2023-03-19T23:01:38;11.00;1.00
3876;DHT22;1953;51.222;6.624;2023-03-19T23:06:22;11.00;1.00
3876;DHT22;1953;51.222;6.624;2023-03-19T23:11:08;11.00;1.00
3876;DHT22;1953;51.222;6.624;2023-03-19T23:15:54;10.90;1.00
3876;DHT22;1953;51.222;6.624;2023-03-19T23:20:38;10.80;1.00
3876;DHT22;1953;51.222;6.624;2023-03-19T23:25:23;10.90;1.00
3876;DHT22;1953;51.222;6.624;2023-03-19T23:30:17;10.80;1.00
3876;DHT22;1953;51.222;6.624;2023-03-19T23:35:00;10.70;1.00
3876;DHT22;1953;51.222;6.624;2023-03-19T23:39:44;10.70;1.00
3876;DHT22;1953;51.222;6.624;2023-03-19T23:44:27;10.60;1.00
3876;DHT22;1953;51.222;6.624;2023-03-19T23:49:11;10.70;1.00
3876;DHT22;1953;51.222;6.624;2023-03-19T23:53:54;10.60;1.00
3876;DHT22;1953;51.222;6.624;2023-03-19T23:58:40;10.70;1.00
